Terminal Aerodrome Forecast
Issued by NWS

Home | Current Version | Previous Version | Text Only | Print | Product List | Glossary On
Versions: 1 2 3 4 5 6 7 8 9 10 11
000
FTUS45 KTWC 130520
TAFOLS
TAF
KOLS 130520Z 1306/1406 04005KT P6SM SKC
     FM131400 VRB03KT P6SM FEW120
     FM132100 27006KT P6SM FEW120
     FM140200 08005KT P6SM SKC=

USA.gov is the U.S. government's official web portal to all federal, state and local government web resources and services.